Terminal Aerodrome Forecast
Issued by NWS

Home | Current Version | Previous Version | Text Only | Print | Product List | Glossary On
Versions: 1 2 3 4 5 6 7 8 9 10 11 12 13 14 15 16
000
FTUS45 KTFX 032344
TAFBZN
TAF
KBZN 032344Z 0400/0424 28009KT P6SM BKN080 PROB30 0421/0424 4SM -SN
      OVC025=

USA.gov is the U.S. government's official web portal to all federal, state and local government web resources and services.